DW6345 Murcia ES current weather conditions

sailwx.info

Wind from 041 at 10 knots gusting 22

Air temperature 18.9° C
Dewpoint 3.5° C

Last reported at 2015-Feb-27 12:44 UTC.
Time now 2015-Feb-27 13:11 UTC

Location: N 37°60' W 001°06'.
View on Google Maps.

See reports from other nearby stations

  
Tides and Currents Weather Stations Pressure Air Temp Water Temp Dewpoint Dewpoint Depression Visibility Wind Speed Wind Dir Waves Ship Positions
date/time (UTC)wind fromknots sea level pressurealtimeterstation pressurevisibilityair tempwater tempwave heightnotes
2015-Feb-27 12:44 041 10 gusting 22 18.9
2015-Feb-27 12:34 270 13 gusting 22 18.9
2015-Feb-27 12:24 315 6 gusting 18 18.9
2015-Feb-27 12:14 270 8 gusting 13 18.3
2015-Feb-27 12:04 045 4 gusting 17 18.3
2015-Feb-27 11:54 308 10 gusting 19 18.3
2015-Feb-27 11:44 270 12 gusting 18 18.3
2015-Feb-27 11:34 270 6 gusting 18 18.9
2015-Feb-27 11:24 041 10 gusting 20 18.3
2015-Feb-27 11:14 045 8 gusting 19 17.8
2015-Feb-27 11:04 270 11 gusting 21 17.8
2015-Feb-27 10:54 270 10 gusting 22 17.2
2015-Feb-27 10:44 041 10 gusting 26 17.2
2015-Feb-27 10:34 270 12 gusting 25 17.2
2015-Feb-27 10:24 315 13 gusting 25 17.2
2015-Feb-27 10:14 310 10 gusting 19 17.2
2015-Feb-27 10:04 270 8 gusting 18 17.2
2015-Feb-27 09:54 315 6 gusting 18 17.8
2015-Feb-27 09:44 315 6 gusting 19 17.8
2015-Feb-27 09:34 043 8 gusting 17 17.8
2015-Feb-27 09:24 274 4 gusting 12 17.2
2015-Feb-27 09:14 272 7 gusting 17 17.2
2015-Feb-27 09:04 315 7 gusting 13 17.2
2015-Feb-27 08:54 270 5 gusting 17 17.2
2015-Feb-27 08:44 313 10 gusting 18 17.2
2015-Feb-27 08:34 315 7 gusting 12 16.7
2015-Feb-27 08:24 315 6 gusting 12 16.7
2015-Feb-27 08:14 273 2 gusting 7 16.7
2015-Feb-27 08:04 045 1 gusting 10 16.1
2015-Feb-27 07:54 273 7 gusting 13 16.1
2015-Feb-27 07:44 272 4 gusting 7 16.1
2015-Feb-27 07:34 315 3 gusting 8 15.6
2015-Feb-27 07:24 272 4 gusting 13 15.6
2015-Feb-27 07:14 270 7 gusting 14 15.6
2015-Feb-27 07:04 270 10 gusting 18 15.6
2015-Feb-27 06:54 315 10 gusting 18 15.6
2015-Feb-27 06:44 274 8 gusting 14 15.6
2015-Feb-27 06:34 270 8 gusting 14 15.6
2015-Feb-27 06:24 315 7 gusting 13 15.6
2015-Feb-27 06:14 270 2 gusting 6 15.6
2015-Feb-27 06:04 225 1 gusting 6 15.6
2015-Feb-27 05:54 270 2 gusting 5 16.1
2015-Feb-27 05:44 273 2 gusting 10 16.1
2015-Feb-27 05:34 270 1 gusting 8 16.1
2015-Feb-27 05:24 315 5 gusting 8 16.1
2015-Feb-27 05:14 276 4 gusting 10 16.1
2015-Feb-27 05:04 315 5 gusting 10 16.1
2015-Feb-27 04:54 270 2 gusting 7 15.6
2015-Feb-27 04:44 315 2 gusting 6 16.1
2015-Feb-27 04:34 270 3 gusting 8 16.1
2015-Feb-27 04:24 219 1 gusting 8 16.1
2015-Feb-27 04:14 229 2 gusting 6 16.1
2015-Feb-27 04:04 270 0 gusting 4 16.1
2015-Feb-27 03:54 272 1 gusting 6 16.1
2015-Feb-27 03:44 270 3 gusting 13 16.7
2015-Feb-27 03:34 272 6 gusting 13 16.7
2015-Feb-27 03:24 312 5 gusting 14 16.7
2015-Feb-27 03:14 270 11 gusting 17 16.1
2015-Feb-27 03:04 315 5 gusting 8 16.1
2015-Feb-27 02:54 273 3 gusting 11 16.1
2015-Feb-27 02:44 270 6 gusting 14 16.1
2015-Feb-27 02:34 270 5 gusting 14 16.7
2015-Feb-27 02:24 270 9 gusting 19 16.7
2015-Feb-27 02:14 309 4 gusting 11 16.7
2015-Feb-27 02:04 315 4 gusting 8 16.7
2015-Feb-27 01:54 314 1 gusting 8 16.7
2015-Feb-27 01:44 271 1 gusting 6 16.7
2015-Feb-27 01:34 147 3 gusting 8 16.7
2015-Feb-27 01:24 067 1 gusting 12 16.7
2015-Feb-27 01:14 313 6 gusting 12 16.7
2015-Feb-27 01:04 270 4 gusting 8 17.2
2015-Feb-27 00:54 275 6 gusting 14 17.2
2015-Feb-27 00:44 311 4 gusting 17 17.2
2015-Feb-27 00:34 290 7 gusting 13 17.2
2015-Feb-27 00:24 270 4 gusting 11 17.2
2015-Feb-27 00:14 038 6 gusting 17 17.2
2015-Feb-27 00:04 270 5 gusting 12 17.2
2015-Feb-26 23:54 315 4 gusting 13 17.2
2015-Feb-26 23:44 270 5 gusting 18 17.2
2015-Feb-26 23:34 270 5 gusting 13 17.8
2015-Feb-26 23:24 315 5 gusting 15 17.8
2015-Feb-26 23:14 273 6 gusting 14 17.8
2015-Feb-26 23:04 315 5 gusting 14 17.8
2015-Feb-26 22:54 038 7 gusting 15 17.8
2015-Feb-26 22:44 312 7 gusting 13 17.8
2015-Feb-26 22:34 290 5 gusting 13 17.8
2015-Feb-26 22:24 355 6 gusting 13 18.3
2015-Feb-26 22:14 275 5 gusting 14 18.3
2015-Feb-26 22:04 315 6 gusting 12 18.3
2015-Feb-26 21:54 270 3 gusting 11 18.3
2015-Feb-26 21:44 314 4 gusting 13 18.9
2015-Feb-26 21:34 315 5 gusting 10 18.9
2015-Feb-26 21:24 312 5 gusting 11 18.3
2015-Feb-26 21:14 313 5 gusting 12 18.3
2015-Feb-26 21:04 315 2 gusting 6 18.9
2015-Feb-26 20:54 324 4 gusting 8 18.9
2015-Feb-26 20:44 315 2 gusting 11 18.9
2015-Feb-26 20:34 270 4 gusting 11 18.9
2015-Feb-26 20:24 312 5 gusting 8 19.4
2015-Feb-26 20:14 270 4 gusting 6 19.4
2015-Feb-26 20:04 315 2 gusting 8 19.4
2015-Feb-26 19:54 314 1 gusting 4 19.4
2015-Feb-26 19:44 312 1 gusting 6 19.4
2015-Feb-26 19:34 272 2 gusting 6 19.4
2015-Feb-26 19:24 313 2 gusting 7 19.4
2015-Feb-26 19:14 270 2 gusting 6 19.4
2015-Feb-26 19:04 315 1 gusting 5 20.0
2015-Feb-26 18:54 315 1 gusting 6 20.0
2015-Feb-26 18:44 272 2 gusting 6 20.0
2015-Feb-26 18:34 273 2 gusting 6 20.0
2015-Feb-26 18:24 277 0 gusting 6 20.6
2015-Feb-26 18:14 315 2 gusting 6 20.6
2015-Feb-26 18:04 270 5 gusting 8 21.1
2015-Feb-26 17:54 276 5 gusting 14 21.1
2015-Feb-26 17:44 270 10 gusting 14 21.1
2015-Feb-26 17:34 315 2 gusting 13 21.7
2015-Feb-26 17:24 312 7 gusting 15 21.7
2015-Feb-26 17:14 270 11 gusting 17 21.7
2015-Feb-26 17:04 270 6 gusting 19 21.7
2015-Feb-26 16:54 045 9 gusting 17 21.7
2015-Feb-26 16:44 323 9 gusting 22 21.7
2015-Feb-26 16:34 270 13 gusting 19 22.2
2015-Feb-26 16:24 292 10 gusting 20 22.2
2015-Feb-26 16:14 273 10 gusting 18 22.2
2015-Feb-26 16:04 045 5 gusting 13 22.2
2015-Feb-26 15:54 270 7 gusting 13 22.2
2015-Feb-26 15:44 045 5 gusting 15 22.2
2015-Feb-26 15:34 291 10 gusting 15 21.7
2015-Feb-26 15:24 275 11 gusting 19 21.7
2015-Feb-26 15:14 355 13 gusting 22 21.7
2015-Feb-26 15:04 225 12 gusting 24 21.7
2015-Feb-26 14:54 270 10 gusting 19 21.7
2015-Feb-26 14:44 045 8 gusting 19 21.7
2015-Feb-26 14:34 312 9 gusting 20 21.7
2015-Feb-26 14:24 040 12 gusting 22 21.7
2015-Feb-26 14:14 270 11 gusting 25 22.2
2015-Feb-26 14:04 315 13 gusting 19 22.2
2015-Feb-26 13:54 041 10 gusting 18 21.7
2015-Feb-26 13:44 270 8 gusting 18 21.7
2015-Feb-26 13:34 270 7 gusting 17 21.7
2015-Feb-26 13:24 270 5 gusting 17 21.7
2015-Feb-26 13:14 316 4 gusting 13 21.7
2015-Feb-26 13:04 270 6 gusting 13 21.1
2015-Feb-26 12:54 296 6 gusting 17 20.6
2015-Feb-26 12:44 270 8 gusting 14 20.6
2015-Feb-26 12:34 274 6 gusting 14 20.6
2015-Feb-26 12:24 270 8 gusting 18 20.6
2015-Feb-26 12:14 315 8 gusting 19 20.6
2015-Feb-26 12:04 315 9 gusting 17 20.6
2015-Feb-26 11:54 270 8 gusting 18 20.6
2015-Feb-26 11:44 313 10 gusting 17 20.6
2015-Feb-26 11:34 045 10 gusting 17 20.0
2015-Feb-26 11:24 270 10 gusting 15 20.0
2015-Feb-26 11:14 270 8 gusting 19 20.0
2015-Feb-26 11:04 315 8 gusting 17 20.0
2015-Feb-26 10:54 270 7 gusting 22 19.4
2015-Feb-26 10:44 270 7 gusting 19 19.4
2015-Feb-26 10:34 310 7 gusting 18 19.4
2015-Feb-26 10:24 273 10 gusting 20 18.9
2015-Feb-26 10:14 290 13 gusting 22 18.9
2015-Feb-26 10:04 270 10 gusting 20 18.3
2015-Feb-26 09:54 045 11 gusting 19 18.3
2015-Feb-26 09:44 270 11 gusting 18 17.8
2015-Feb-26 09:34 272 8 gusting 19 17.8
2015-Feb-26 09:24 270 13 gusting 19 17.8
2015-Feb-26 09:14 270 13 gusting 19 17.2
2015-Feb-26 09:04 270 6 gusting 18 17.2
2015-Feb-26 08:54 270 12 gusting 19 17.2
2015-Feb-26 08:44 315 8 gusting 13 16.7
2015-Feb-26 08:34 315 11 gusting 17 16.7
2015-Feb-26 08:24 270 8 gusting 14 16.7
2015-Feb-26 08:14 273 6 gusting 11 16.7
2015-Feb-26 08:04 315 2 gusting 11 16.7
2015-Feb-26 07:54 315 4 gusting 8 16.7
2015-Feb-26 07:44 274 3 gusting 11 16.1
2015-Feb-26 07:34 315 5 gusting 8 16.1
2015-Feb-26 07:24 273 2 gusting 14 16.1
2015-Feb-26 07:14 270 7 gusting 19 16.1
2015-Feb-26 07:04 315 10 gusting 19 16.1
2015-Feb-26 06:54 270 8 gusting 17 16.1
2015-Feb-26 06:44 315 10 gusting 15 16.1
2015-Feb-26 06:34 270 6 gusting 21 16.1
2015-Feb-26 06:24 272 8 gusting 20 16.1
2015-Feb-26 06:14 270 8 gusting 17 16.1
2015-Feb-26 06:04 045 10 gusting 19 16.1
2015-Feb-26 05:54 274 7 gusting 21 16.1
2015-Feb-26 05:44 315 6 gusting 19 16.1
2015-Feb-26 05:34 312 8 gusting 19 16.1
2015-Feb-26 05:24 279 10 gusting 24 16.7
2015-Feb-26 05:14 045 14 gusting 30 16.7
2015-Feb-26 05:04 004 14 gusting 30 16.7
2015-Feb-26 04:54 039 13 gusting 31 16.7
2015-Feb-26 04:44 270 15 gusting 30 16.7
2015-Feb-26 04:34 273 15 gusting 26 16.7
2015-Feb-26 04:24 270 19 gusting 33 16.7
2015-Feb-26 04:14 16.7
2015-Feb-26 04:04 045 13 gusting 18 16.7
2015-Feb-26 03:54 270 11 gusting 19 16.7
2015-Feb-26 03:44 273 9 gusting 19 16.7
2015-Feb-26 03:34 315 7 gusting 19 16.7
2015-Feb-26 03:24 270 6 gusting 13 16.7
2015-Feb-26 03:14 313 4 gusting 17 16.7
2015-Feb-26 03:04 270 5 gusting 13 16.7
2015-Feb-26 02:54 045 8 gusting 20 16.7
2015-Feb-26 02:44 275 8 gusting 17 16.7
2015-Feb-26 02:34 270 8 gusting 19 17.2
2015-Feb-26 02:24 270 13 gusting 20 17.2
2015-Feb-26 02:14 313 11 gusting 20 17.2
2015-Feb-26 02:04 270 10 gusting 21 17.2
2015-Feb-26 01:54 315 7 gusting 18 17.2
2015-Feb-26 01:44 315 10 gusting 19 17.2
2015-Feb-26 01:34 273 5 gusting 14 17.2
2015-Feb-26 01:24 312 4 gusting 13 17.2
2015-Feb-26 01:14 314 4 gusting 11 17.2
2015-Feb-26 01:04 270 4 gusting 10 16.7
2015-Feb-26 00:54 315 1 gusting 13 16.7
2015-Feb-26 00:44 317 3 gusting 10 16.7
2015-Feb-26 00:34 270 2 gusting 6 16.7
2015-Feb-26 00:24 052 1 gusting 8 16.7
2015-Feb-26 00:14 315 4 gusting 11 16.7
2015-Feb-26 00:04 315 5 gusting 10 16.7
2015-Feb-25 23:54 270 4 gusting 13 16.7
2015-Feb-25 23:44 315 1 gusting 13 16.7
2015-Feb-25 23:34 315 4 gusting 13 16.7
2015-Feb-25 23:24 275 6 gusting 18 16.7
2015-Feb-25 23:14 311 8 gusting 18 16.7
2015-Feb-25 23:04 315 4 gusting 15 16.7
2015-Feb-25 22:54 270 8 gusting 18 16.7
2015-Feb-25 22:44 312 10 gusting 18 16.7
2015-Feb-25 22:34 313 6 gusting 19 16.7
2015-Feb-25 22:24 037 10 gusting 26 17.2
2015-Feb-25 22:14 270 12 gusting 25 17.2
2015-Feb-25 22:04 270 12 gusting 24 17.2
2015-Feb-25 21:54 270 13 gusting 22 17.2
2015-Feb-25 21:44 315 10 gusting 22 17.2
2015-Feb-25 21:34 272 10 gusting 21 17.2
2015-Feb-25 21:24 040 7 gusting 19 17.2
2015-Feb-25 21:14 270 7 gusting 18 17.2
2015-Feb-25 21:04 045 8 gusting 15 17.2
2015-Feb-25 20:54 315 6 gusting 22 17.2
2015-Feb-25 20:44 270 12 gusting 19 17.2
2015-Feb-25 20:34 270 11 gusting 19 17.2
2015-Feb-25 20:24 272 9 gusting 24 17.2
2015-Feb-25 20:14 270 14 gusting 26 17.2
2015-Feb-25 20:04 270 12 gusting 26 17.2
2015-Feb-25 19:54 273 17 gusting 27 17.2
2015-Feb-25 19:44 270 8 gusting 19 17.8
2015-Feb-25 19:34 274 9 gusting 18 17.8
2015-Feb-25 19:24 045 10 gusting 18 17.2
2015-Feb-25 19:14 045 6 gusting 17 17.2
2015-Feb-25 19:04 315 10 gusting 17 17.8
2015-Feb-25 18:54 270 8 gusting 17 17.8
2015-Feb-25 18:44 315 8 gusting 14 17.8
2015-Feb-25 18:34 270 7 gusting 19 17.8
2015-Feb-25 18:24 311 9 gusting 18 17.8
2015-Feb-25 18:14 315 6 gusting 14 17.8
2015-Feb-25 18:04 315 5 gusting 17 17.8
2015-Feb-25 17:54 270 10 gusting 17 17.8
2015-Feb-25 17:44 270 8 gusting 20 17.8
2015-Feb-25 17:34 270 8 gusting 18 17.8
2015-Feb-25 17:24 270 7 gusting 18 17.8
2015-Feb-25 17:14 042 8 gusting 18 17.8
2015-Feb-25 17:04 315 6 gusting 11 17.8
2015-Feb-25 16:54 270 4 gusting 13 17.8
2015-Feb-25 16:44 315 4 gusting 8 17.8
2015-Feb-25 16:34 313 5 gusting 13 17.8
2015-Feb-25 16:24 270 6 gusting 17 17.2
2015-Feb-25 16:14 315 6 gusting 12 17.2
2015-Feb-25 16:04 315 5 gusting 18 17.2
2015-Feb-25 15:54 312 10 gusting 18 17.2
2015-Feb-25 15:44 043 5 gusting 17 16.7
2015-Feb-25 15:34 273 10 gusting 17 16.7
2015-Feb-25 15:24 270 6 gusting 15 16.7
2015-Feb-25 15:14 270 4 gusting 11 16.7
2015-Feb-25 15:04 270 7 gusting 14 16.7
2015-Feb-25 14:54 315 9 gusting 18 16.7
2015-Feb-25 14:44 312 6 gusting 20 16.7
2015-Feb-25 14:34 315 7 gusting 20 16.7
2015-Feb-25 14:24 273 8 gusting 13 16.7
2015-Feb-25 14:14 270 7 gusting 13 16.1
2015-Feb-25 14:04 270 7 gusting 18 16.1
2015-Feb-25 13:54 270 12 gusting 26 16.1
2015-Feb-25 13:44 270 6 gusting 19 16.1
2015-Feb-25 13:34 312 7 gusting 14 16.1
2015-Feb-25 13:24 315 9 gusting 17 16.1
2015-Feb-25 13:14 313 4 gusting 14 16.1
2015-Feb-25 13:04 045 5 gusting 13 16.1